Time;durP1;ratioP1;P1;durP2;ratioP2;P2;SDS_P1;SDS_P2;PMS_P1;PMS_P2;Temp;Humidity;BMP_temperature;BMP_pressure;BME280_temperature;BME280_humidity;BME280_pressure;Samples;Min_cycle;Max_cycle;Signal;HPM_P1;HPM_P2
2022/06/17 00:01:32;;;;;;;11.48;8.68;;;;;;;20.07;53.18;102255.75;5111984;28;20024;-65
2022/06/17 00:03:59;;;;;;;9.13;7.75;;;;;;;20.15;53.18;102254.34;5102229;28;20406;-65
2022/06/17 00:06:34;;;;;;;10.30;8.30;;;;;;;20.17;53.01;102249.28;5112401;28;20027;-65
2022/06/17 00:09:00;;;;;;;12.38;9.02;;;;;;;20.08;53.36;102256.59;5100969;28;20453;-65
2022/06/17 00:11:32;;;;;;;9.80;8.35;;;;;;;20.02;53.33;102258.59;5104174;28;20027;-65
2022/06/17 00:14:02;;;;;;;13.05;8.77;;;;;;;20.04;53.11;102247.88;5113661;28;20118;-67
2022/06/17 00:16:29;;;;;;;13.55;9.00;;;;;;;19.98;53.26;102256.63;5111923;28;20040;-65
2022/06/17 00:18:55;;;;;;;9.38;8.43;;;;;;;19.96;52.88;102254.06;5103194;28;20055;-66
2022/06/17 00:21:29;;;;;;;9.80;7.88;;;;;;;19.96;52.84;102258.88;5113469;28;20069;-64
2022/06/17 00:23:55;;;;;;;9.65;8.07;;;;;;;19.87;53.33;102272.69;5097167;28;20028;-65
2022/06/17 00:26:21;;;;;;;10.05;8.90;;;;;;;19.86;53.44;102271.00;5095820;28;20038;-64
2022/06/17 00:28:48;;;;;;;11.65;8.93;;;;;;;19.85;53.68;102263.69;5108102;28;20100;-64
2022/06/17 00:31:13;;;;;;;12.27;8.88;;;;;;;19.77;53.63;102262.25;5103835;28;20039;-64
2022/06/17 00:33:39;;;;;;;10.88;8.65;;;;;;;19.80;53.46;102258.03;5092626;28;20020;-64
2022/06/17 00:36:11;;;;;;;13.98;9.57;;;;;;;19.78;53.61;102258.31;5104528;28;20119;-64
2022/06/17 00:38:37;;;;;;;10.90;8.75;;;;;;;19.73;53.68;102258.31;5094308;28;20036;-63
2022/06/17 00:41:12;;;;;;;13.02;9.35;;;;;;;19.69;53.98;102264.78;5093990;28;20032;-64
2022/06/17 00:43:39;;;;;;;13.60;9.35;;;;;;;19.68;53.87;102280.00;5100198;28;20463;-64
2022/06/17 00:46:20;;;;;;;10.52;9.20;;;;;;;19.63;53.99;102278.00;5097929;28;20036;-64
2022/06/17 00:49:14;;;;;;;12.70;9.32;;;;;;;19.75;53.25;102267.31;5105170;28;20035;-64
2022/06/17 00:51:44;;;;;;;10.75;9.18;;;;;;;19.59;54.25;102265.59;5095170;28;20119;-63
2022/06/17 00:54:37;;;;;;;10.90;9.55;;;;;;;19.74;53.38;102268.44;5093860;28;20375;-64
2022/06/17 00:57:17;;;;;;;11.73;9.25;;;;;;;19.71;53.32;102251.25;5074792;28;20416;-64
2022/06/17 00:59:42;;;;;;;12.50;9.07;;;;;;;19.66;53.91;102248.44;5112518;28;20046;-64
2022/06/17 01:02:10;;;;;;;11.82;9.10;;;;;;;19.64;53.80;102254.34;5112507;28;20463;-66
2022/06/17 01:04:42;;;;;;;14.77;10.32;;;;;;;19.69;53.74;102264.78;5106688;28;20119;-64
2022/06/17 01:07:25;;;;;;;9.75;8.88;;;;;;;19.68;53.50;102266.75;5106419;28;20386;-63
2022/06/17 01:10:02;;;;;;;11.18;9.23;;;;;;;19.61;54.26;102260.53;5116920;27;20023;-64
2022/06/17 01:12:58;;;;;;;16.65;9.68;;;;;;;19.67;53.46;102250.97;5112654;28;20023;-64
2022/06/17 01:15:28;;;;;;;12.63;9.43;;;;;;;19.59;53.95;102257.13;5093479;28;20028;-64
2022/06/17 01:17:55;;;;;;;10.90;9.80;;;;;;;19.49;54.33;102260.78;5092326;28;20032;-64
2022/06/17 01:20:22;;;;;;;11.50;9.48;;;;;;;19.54;54.48;102271.22;5099166;28;20142;-64
2022/06/17 01:22:59;;;;;;;10.57;9.48;;;;;;;19.52;54.08;102265.84;5103727;28;20110;-65
2022/06/17 01:25:34;;;;;;;11.77;10.13;;;;;;;19.42;54.56;102267.81;5110316;28;20039;-64
2022/06/17 01:28:06;;;;;;;11.60;8.75;;;;;;;19.41;54.50;102266.09;5101269;28;20027;-64
2022/06/17 01:30:38;;;;;;;15.50;9.90;;;;;;;19.41;54.27;102260.47;5110792;28;20034;-64
2022/06/17 01:33:10;;;;;;;10.10;9.10;;;;;;;19.33;54.72;102262.72;5109249;28;20345;-64
2022/06/17 01:35:41;;;;;;;10.93;9.68;;;;;;;19.33;54.71;102257.06;5107834;28;20035;-65
2022/06/17 01:38:07;;;;;;;11.15;9.88;;;;;;;19.31;54.83;102253.72;5094781;28;20039;-64
2022/06/17 01:40:32;;;;;;;12.27;10.10;;;;;;;19.29;54.84;102255.09;5095981;28;20057;-65
2022/06/17 01:43:05;;;;;;;16.23;10.43;;;;;;;19.21;54.98;102258.47;5096638;28;20073;-65
2022/06/17 01:45:36;;;;;;;11.13;9.93;;;;;;;19.17;54.92;102255.34;5091434;28;20434;-64
2022/06/17 01:48:01;;;;;;;10.73;9.70;;;;;;;19.19;55.11;102257.91;5092507;28;20039;-64
2022/06/17 01:50:28;;;;;;;14.05;10.50;;;;;;;19.16;54.95;102256.47;5095628;28;20020;-65
2022/06/17 01:53:08;;;;;;;11.35;9.57;;;;;;;19.18;55.08;102254.25;5098798;28;20028;-66
2022/06/17 01:55:41;;;;;;;13.75;9.90;;;;;;;19.17;55.21;102255.34;5092337;28;20028;-65
2022/06/17 01:58:13;;;;;;;11.25;10.05;;;;;;;19.15;55.67;102262.41;5100433;28;20043;-66
2022/06/17 02:00:41;;;;;;;10.88;9.70;;;;;;;19.13;55.75;102257.03;5105069;28;20024;-65
2022/06/17 02:03:13;;;;;;;10.55;9.50;;;;;;;19.10;55.51;102266.91;5095641;28;20043;-65
2022/06/17 02:05:40;;;;;;;;;;;;;;;19.40;53.39;102261.59;5109661;28;20024;-65
2022/06/17 02:08:06;;;;;;;12.70;9.25;;;;;;;19.08;55.67;102259.84;5110405;28;20255;-65
2022/06/17 02:10:35;;;;;;;13.60;9.88;;;;;;;19.10;55.88;102261.25;5100860;28;20046;-65
2022/06/17 02:13:03;;;;;;;12.82;9.93;;;;;;;19.03;56.03;102248.56;5108903;28;20482;-65
2022/06/17 02:15:29;;;;;;;10.98;9.70;;;;;;;19.03;55.92;102252.22;5109294;28;20034;-65
2022/06/17 02:17:55;;;;;;;10.73;9.43;;;;;;;19.03;55.95;102255.03;5112264;28;20113;-65
2022/06/17 02:20:24;;;;;;;21.08;9.65;;;;;;;19.05;56.11;102254.75;5108624;28;21068;-65
2022/06/17 02:22:50;;;;;;;11.00;9.43;;;;;;;19.00;56.02;102254.75;5111960;28;20023;-65
2022/06/17 02:25:20;;;;;;;14.35;9.93;;;;;;;18.96;56.53;102250.78;5101686;28;20111;-65
2022/06/17 02:27:49;;;;;;;10.50;9.43;;;;;;;18.98;56.20;102255.03;5101110;28;20035;-65
2022/06/17 02:30:15;;;;;;;11.98;9.82;;;;;;;19.01;56.17;102250.81;5104417;28;20028;-66
2022/06/17 02:32:42;;;;;;;10.60;9.43;;;;;;;18.93;56.44;102252.19;5091652;28;20025;-65
2022/06/17 02:35:35;;;;;;;13.93;9.52;;;;;;;19.04;55.69;102253.06;5093675;28;20032;-65
2022/06/17 02:38:00;;;;;;;11.43;10.20;;;;;;;18.94;56.39;102247.41;5091150;28;20135;-65
2022/06/17 02:40:30;;;;;;;12.30;10.20;;;;;;;18.93;56.02;102249.38;5093677;28;20115;-65
2022/06/17 02:42:57;;;;;;;12.25;10.15;;;;;;;18.83;56.44;102253.00;5091028;28;20036;-65
2022/06/17 02:45:26;;;;;;;11.80;9.40;;;;;;;18.86;56.34;102249.63;5108028;28;20073;-65
2022/06/17 02:47:53;;;;;;;11.18;9.00;;;;;;;18.92;56.37;102249.66;5112305;28;20032;-66
2022/06/17 02:50:24;;;;;;;11.50;9.00;;;;;;;18.84;56.44;102251.88;5109288;28;20104;-66
2022/06/17 02:52:51;;;;;;;12.97;10.00;;;;;;;18.82;56.47;102248.50;5112029;28;20475;-65
2022/06/17 02:55:38;;;;;;;11.07;9.88;;;;;;;18.78;56.38;102249.31;5110374;28;20321;-65
2022/06/17 02:58:45;;;;;;;13.38;9.45;;;;;;;18.87;56.03;102245.69;5109327;28;20471;-65
2022/06/17 03:01:21;;;;;;;11.18;9.73;;;;;;;18.77;56.33;102253.25;5101523;28;20032;-66
2022/06/17 03:03:47;;;;;;;10.88;9.77;;;;;;;18.77;56.31;102251.28;5107197;28;20103;-66
2022/06/17 03:06:42;;;;;;;12.23;9.43;;;;;;;18.79;56.02;102253.81;5106656;28;20086;-65
2022/06/17 03:09:29;;;;;;;10.82;9.73;;;;;;;18.74;56.07;102251.81;5109628;28;20067;-66
2022/06/17 03:12:03;;;;;;;16.33;9.85;;;;;;;18.71;56.55;102254.34;5109178;28;20131;-65
2022/06/17 03:14:48;;;;;;;11.05;9.82;;;;;;;18.63;57.03;102250.91;5109733;28;20040;-66
2022/06/17 03:17:17;;;;;;;10.45;9.43;;;;;;;18.59;57.18;102246.09;5094552;28;21964;-66
2022/06/17 03:19:46;;;;;;;10.85;9.75;;;;;;;18.62;57.24;102257.63;5101587;28;20034;-66
2022/06/17 03:22:13;;;;;;;17.80;10.20;;;;;;;18.61;57.17;102255.09;5110599;28;20082;-65
2022/06/17 03:25:09;;;;;;;11.55;10.35;;;;;;;18.64;56.81;102257.38;5109358;28;20024;-65
2022/06/17 03:27:43;;;;;;;12.93;10.13;;;;;;;18.59;57.06;102263.81;5109118;28;20032;-66
2022/06/17 03:30:16;;;;;;;13.93;10.30;;;;;;;18.52;57.26;102256.75;5111588;28;20053;-66
2022/06/17 03:32:45;;;;;;;14.32;10.30;;;;;;;18.55;57.24;102262.69;5108415;28;20082;-65
2022/06/17 03:35:19;;;;;;;11.07;9.98;;;;;;;18.57;57.33;102270.81;5106670;28;20019;-65
2022/06/17 03:38:12;;;;;;;10.77;9.70;;;;;;;18.64;56.81;102275.09;5098205;28;20047;-65
2022/06/17 03:40:41;;;;;;;12.00;10.38;;;;;;;18.57;57.45;102282.91;5091000;28;20038;-65
2022/06/17 03:43:15;;;;;;;11.43;10.18;;;;;;;18.60;57.20;102289.97;5105701;28;20024;-66
2022/06/17 03:45:55;;;;;;;12.60;9.90;;;;;;;18.62;57.14;102284.91;5110284;28;20434;-65
2022/06/17 03:48:46;;;;;;;13.57;10.13;;;;;;;18.54;57.69;102293.84;5105050;28;20024;-65
2022/06/17 03:51:18;;;;;;;13.07;10.10;;;;;;;18.60;57.73;102296.44;5100442;28;20032;-65
2022/06/17 03:53:45;;;;;;;14.13;10.25;;;;;;;18.59;58.33;102296.72;5090255;28;20106;-65
2022/06/17 03:56:18;;;;;;;13.13;10.57;;;;;;;18.61;58.06;102292.50;5090255;28;20032;-65
2022/06/17 03:58:45;;;;;;;13.15;10.25;;;;;;;18.60;58.11;102288.00;5107450;28;20489;-65
2022/06/17 04:01:13;;;;;;;15.60;10.95;;;;;;;18.63;58.09;102286.63;5109852;28;20032;-65
2022/06/17 04:03:42;;;;;;;12.07;9.90;;;;;;;18.62;58.33;102280.13;5103197;28;20035;-66
2022/06/17 04:06:11;;;;;;;13.82;10.30;;;;;;;18.66;58.62;102277.63;5105330;28;20035;-65
2022/06/17 04:08:51;;;;;;;13.90;10.00;;;;;;;18.72;57.90;102282.19;5105387;28;20054;-66
2022/06/17 04:11:17;;;;;;;14.57;10.00;;;;;;;18.72;58.60;102285.00;5111894;28;20351;-64
2022/06/17 04:13:42;;;;;;;13.30;10.15;;;;;;;18.73;58.42;102281.06;5113378;28;20035;-65
2022/06/17 04:16:33;;;;;;;16.27;10.88;;;;;;;18.77;58.02;102281.38;5111445;28;20038;-65
2022/06/17 04:19:32;;;;;;;14.13;9.98;;;;;;;18.72;58.53;102282.19;5114396;28;20040;-65
2022/06/17 04:22:13;;;;;;;10.63;9.63;;;;;;;18.79;58.17;102279.16;5104397;27;20059;-64
2022/06/17 04:24:39;;;;;;;11.68;10.50;;;;;;;18.81;57.72;102274.06;5107242;27;20040;-65
2022/06/17 04:27:07;;;;;;;13.45;10.25;;;;;;;18.83;57.83;102269.88;5112833;28;20030;-65
2022/06/17 04:29:40;;;;;;;13.23;10.07;;;;;;;18.89;56.54;102263.13;5112964;28;20517;-65
2022/06/17 04:32:24;;;;;;;12.60;10.65;;;;;;;18.89;56.76;102268.75;5111383;28;20460;-65
2022/06/17 04:34:55;;;;;;;11.57;9.73;;;;;;;18.91;56.96;102270.47;5114382;28;20036;-65
2022/06/17 04:37:25;;;;;;;13.40;10.95;;;;;;;18.94;56.53;102261.47;5110845;28;20053;-65
2022/06/17 04:39:57;;;;;;;15.57;9.88;;;;;;;18.93;55.94;102265.41;5112629;28;20820;-64
2022/06/17 04:42:35;;;;;;;13.30;9.18;;;;;;;19.03;55.85;102257.00;5111948;28;20110;-65
2022/06/17 04:45:04;;;;;;;13.32;9.50;;;;;;;19.00;55.65;102257.56;5111818;28;20024;-64
2022/06/17 04:47:32;;;;;;;11.60;9.60;;;;;;;18.99;55.42;102251.09;5094321;28;20425;-65
2022/06/17 04:50:02;;;;;;;12.88;9.85;;;;;;;18.97;55.15;102253.31;5092944;28;20032;-65
2022/06/17 04:52:35;;;;;;;12.18;9.43;;;;;;;19.03;55.01;102242.94;5094211;28;20103;-65
2022/06/17 04:55:03;;;;;;;14.70;9.68;;;;;;;19.05;55.05;102238.72;5095607;28;20069;-65
2022/06/17 04:57:30;;;;;;;12.68;10.07;;;;;;;19.06;54.37;102248.88;5104490;28;20023;-65
2022/06/17 04:59:58;;;;;;;15.05;9.45;;;;;;;19.07;54.61;102241.28;5100406;28;20107;-66
2022/06/17 05:02:26;;;;;;;11.60;9.10;;;;;;;19.15;54.20;102226.66;5103098;28;20038;-66
2022/06/17 05:04:55;;;;;;;10.45;8.73;;;;;;;19.12;54.02;102241.28;5102057;28;20027;-66
2022/06/17 05:07:21;;;;;;;10.57;8.88;;;;;;;19.17;53.56;102246.91;5105559;28;20389;-65
2022/06/17 05:09:51;;;;;;;11.90;9.90;;;;;;;19.22;53.50;102244.13;5110246;28;20027;-65
2022/06/17 05:12:24;;;;;;;9.63;8.68;;;;;;;19.19;53.46;102244.69;5113473;28;20490;-66
2022/06/17 05:14:54;;;;;;;11.43;8.55;;;;;;;19.22;53.21;102249.75;5092748;28;20044;-66
2022/06/17 05:17:20;;;;;;;10.68;8.48;;;;;;;19.28;53.17;102248.63;5100502;28;20140;-66
2022/06/17 05:19:48;;;;;;;13.20;8.68;;;;;;;19.24;53.48;102246.66;5095169;28;20375;-63
2022/06/17 05:22:46;;;;;;;10.52;8.48;;;;;;;19.24;52.92;102247.50;5093645;28;20035;-66
2022/06/17 05:25:20;;;;;;;9.73;8.48;;;;;;;19.28;52.82;102237.38;5090071;28;20428;-65
2022/06/17 05:27:45;;;;;;;9.95;8.38;;;;;;;19.28;52.67;102237.38;5112959;28;20478;-65
2022/06/17 05:30:14;;;;;;;10.65;8.75;;;;;;;19.28;52.60;102250.59;5105904;28;20081;-65
2022/06/17 05:32:44;;;;;;;15.70;9.10;;;;;;;19.29;52.61;102239.06;5112933;28;20069;-64
2022/06/17 05:35:10;;;;;;;13.10;8.63;;;;;;;19.30;52.62;102235.13;5104233;28;20019;-64
2022/06/17 05:37:36;;;;;;;9.82;8.27;;;;;;;19.36;52.63;102244.44;5112411;28;20051;-65
2022/06/17 05:40:03;;;;;;;9.82;8.10;;;;;;;19.40;52.63;102239.09;5102245;28;20463;-65
2022/06/17 05:42:28;;;;;;;11.60;7.55;;;;;;;19.45;52.57;102237.09;5101798;28;20028;-66
2022/06/17 05:44:54;;;;;;;12.18;8.60;;;;;;;19.43;53.11;102232.91;5108670;27;20031;-65
2022/06/17 05:47:19;;;;;;;15.65;8.93;;;;;;;19.48;52.63;102239.38;5113357;28;20114;-65
2022/06/17 05:49:44;;;;;;;12.50;8.90;;;;;;;19.53;52.72;102233.75;5104476;28;20036;-65
2022/06/17 05:52:10;;;;;;;15.00;9.02;;;;;;;19.53;52.96;102230.06;5106979;28;20050;-64
2022/06/17 05:54:36;;;;;;;10.88;8.38;;;;;;;19.54;53.34;102217.72;5101604;28;20480;-65
2022/06/17 05:57:05;;;;;;;6.88;6.05;;;;;;;19.64;54.18;102233.78;5092695;28;20024;-64
2022/06/17 05:59:30;;;;;;;6.00;4.53;;;;;;;19.71;53.88;102221.13;5103993;27;20873;-65
2022/06/17 06:01:55;;;;;;;5.28;4.78;;;;;;;19.78;54.08;102218.88;5091000;28;20035;-64
2022/06/17 06:04:25;;;;;;;5.82;5.13;;;;;;;19.81;54.31;102215.50;5094930;28;20030;-66
2022/06/17 06:06:51;;;;;;;5.82;5.10;;;;;;;19.85;53.84;102219.44;5100238;28;20436;-66
2022/06/17 06:09:16;;;;;;;11.77;5.85;;;;;;;19.90;53.58;102220.56;5097465;28;20069;-65
2022/06/17 06:11:44;;;;;;;7.03;5.05;;;;;;;19.96;53.72;102205.31;5097388;28;20450;-65
2022/06/17 06:14:09;;;;;;;8.10;5.88;;;;;;;19.94;53.19;102216.03;5108228;28;20020;-68
2022/06/17 06:16:38;;;;;;;8.25;5.10;;;;;;;19.99;53.43;102208.41;5097332;28;20039;-68
2022/06/17 06:19:04;;;;;;;11.75;7.55;;;;;;;19.93;52.28;102205.91;5089304;28;20028;-69
2022/06/17 06:21:32;;;;;;;10.10;6.90;;;;;;;19.94;53.16;102199.13;5101759;28;20071;-67
2022/06/17 06:23:58;;;;;;;8.52;5.47;;;;;;;20.00;53.33;102201.69;5095347;28;20387;-69
2022/06/17 06:26:24;;;;;;;6.93;5.03;;;;;;;20.03;53.16;102203.06;5098659;28;20031;-69
2022/06/17 06:28:49;;;;;;;11.02;6.03;;;;;;;19.96;52.63;102202.50;5100511;28;20390;-68
2022/06/17 06:31:26;;;;;;;9.40;5.30;;;;;;;20.02;52.85;102212.66;5105661;28;20106;-69
2022/06/17 06:33:52;;;;;;;10.27;5.13;;;;;;;20.04;53.06;102216.00;5097207;28;20440;-68
2022/06/17 06:36:18;;;;;;;6.53;5.07;;;;;;;20.04;52.43;102221.66;5117361;27;20079;-64
2022/06/17 06:38:43;;;;;;;8.32;5.07;;;;;;;20.07;52.49;102232.38;5101367;28;20036;-64
2022/06/17 06:41:12;;;;;;;5.55;4.60;;;;;;;20.10;52.17;102228.97;5126713;27;20444;-63
2022/06/17 06:43:43;;;;;;;7.65;4.72;;;;;;;20.14;52.12;102224.47;5112245;27;20023;-63
2022/06/17 06:46:14;;;;;;;8.65;5.00;;;;;;;20.11;51.90;102234.31;5113464;28;20503;-64
2022/06/17 06:48:40;;;;;;;5.45;4.70;;;;;;;20.21;52.18;102236.31;5112761;28;20475;-66
2022/06/17 06:51:05;;;;;;;7.07;4.32;;;;;;;20.20;51.46;102228.97;5126943;27;20763;-65
2022/06/17 06:53:31;;;;;;;5.22;4.70;;;;;;;20.15;51.11;102222.50;5104916;27;20107;-65
2022/06/17 06:55:59;;;;;;;7.00;4.45;;;;;;;20.24;51.92;102227.28;5101472;28;20020;-65
2022/06/17 06:58:27;;;;;;;5.75;3.95;;;;;;;20.32;51.78;102229.50;5109985;28;20043;-64
2022/06/17 07:00:56;;;;;;;6.93;4.40;;;;;;;20.30;51.14;102239.38;5103618;28;20102;-65
2022/06/17 07:03:23;;;;;;;5.82;4.25;;;;;;;20.37;51.32;102247.56;5109778;28;20038;-64
2022/06/17 07:05:56;;;;;;;6.78;4.78;;;;;;;20.43;51.34;102249.22;5116780;28;20113;-65
2022/06/17 07:08:25;;;;;;;9.13;4.60;;;;;;;20.53;51.18;102249.22;5112994;28;20058;-65
2022/06/17 07:10:52;;;;;;;6.07;4.47;;;;;;;20.66;50.83;102245.78;5097949;28;20475;-64
2022/06/17 07:13:19;;;;;;;6.53;4.82;;;;;;;20.73;50.79;102246.34;5101098;28;20026;-64
2022/06/17 07:15:46;;;;;;;6.32;4.63;;;;;;;20.80;50.44;102235.59;5102932;28;20111;-64
2022/06/17 07:18:16;;;;;;;6.68;3.92;;;;;;;20.89;50.38;102218.06;5107708;28;20039;-65
2022/06/17 07:20:47;;;;;;;9.05;4.80;;;;;;;20.89;49.92;102243.44;5095261;28;20560;-65
2022/06/17 07:23:20;;;;;;;7.07;4.30;;;;;;;20.98;50.07;102225.59;5102736;28;20032;-65
2022/06/17 07:25:46;;;;;;;5.07;4.35;;;;;;;20.98;49.45;102224.78;5098515;28;20032;-65
2022/06/17 07:28:17;;;;;;;8.18;4.30;;;;;;;21.06;49.81;102227.84;5099297;28;20038;-64
2022/06/17 07:30:50;;;;;;;6.27;3.80;;;;;;;21.13;49.62;102229.50;5092129;28;20036;-66
2022/06/17 07:33:17;;;;;;;4.93;4.20;;;;;;;21.21;49.45;102223.22;5091261;28;20051;-64
2022/06/17 07:35:45;;;;;;;6.35;4.72;;;;;;;21.23;49.10;102219.00;5099133;28;20028;-64
2022/06/17 07:41:11;;;;;;;5.40;4.28;;;;;;;21.32;49.53;102208.78;5102663;27;20137;-64
2022/06/17 07:43:36;;;;;;;5.78;4.00;;;;;;;21.35;49.15;102212.19;5104298;27;20516;-65
2022/06/17 07:46:04;;;;;;;6.47;4.38;;;;;;;21.34;47.86;102225.47;5097643;28;20039;-65
2022/06/17 07:48:29;;;;;;;6.45;3.60;;;;;;;21.40;47.97;102234.72;5094192;28;20035;-65
2022/06/17 07:50:58;;;;;;;5.28;4.45;;;;;;;21.41;47.36;102230.75;5104290;28;20486;-66
2022/06/17 07:53:25;;;;;;;5.75;3.88;;;;;;;21.48;47.09;102228.44;5111696;28;20035;-67
2022/06/17 07:55:51;;;;;;;6.18;4.05;;;;;;;21.52;47.16;102227.56;5107439;27;20019;-67
2022/06/17 07:58:18;;;;;;;10.57;4.35;;;;;;;21.60;46.92;102220.44;5096877;28;20034;-67
2022/06/17 08:00:45;;;;;;;7.72;3.97;;;;;;;21.63;46.49;102222.69;5101501;27;20112;-70
2022/06/17 08:03:15;;;;;;;12.57;3.97;;;;;;;21.81;46.84;102223.94;5106751;28;20081;-69
2022/06/17 08:05:45;;;;;;;6.68;3.60;;;;;;;21.88;47.19;102220.78;5097103;28;20028;-68
2022/06/17 08:08:11;;;;;;;6.03;3.50;;;;;;;21.97;47.77;102227.50;5109140;28;20494;-67
2022/06/17 08:10:37;;;;;;;6.57;3.22;;;;;;;22.05;47.26;102235.34;5107573;27;20040;-67
2022/06/17 08:13:07;;;;;;;7.72;3.90;;;;;;;22.09;46.40;102239.25;5105170;27;20087;-66
2022/06/17 08:15:35;;;;;;;6.15;3.42;;;;;;;22.12;46.59;102240.63;5111836;27;20063;-67
2022/06/17 08:18:04;;;;;;;6.65;3.75;;;;;;;22.17;45.76;102244.28;5118889;27;20383;-64
2022/06/17 08:20:34;;;;;;;5.72;3.60;;;;;;;22.23;45.35;102237.41;5094090;27;20044;-65
2022/06/17 08:22:59;;;;;;;6.15;3.72;;;;;;;22.35;45.70;102241.84;5104920;28;20115;-67
2022/06/17 08:25:25;;;;;;;5.10;3.22;;;;;;;22.41;45.13;102246.31;5108332;27;20095;-65
2022/06/17 08:27:55;;;;;;;5.18;3.17;;;;;;;22.61;44.57;102246.06;5113295;27;20390;-65
2022/06/17 08:30:24;;;;;;;5.00;3.17;;;;;;;22.59;44.23;102239.03;5118288;27;20474;-66
2022/06/17 08:33:16;;;;;;;5.95;2.90;;;;;;;22.67;44.71;102233.53;5122719;27;20019;-65
2022/06/17 08:35:45;;;;;;;6.00;3.00;;;;;;;22.73;43.77;102229.50;5090170;27;20035;-66
2022/06/17 08:38:17;;;;;;;9.13;3.22;;;;;;;22.77;43.21;102222.09;5119758;27;20477;-66
2022/06/17 08:40:55;;;;;;;;;;;;;;;22.80;44.41;102217.81;5120639;27;20100;-66
2022/06/17 08:43:53;;;;;;;6.53;3.10;;;;;;;22.75;43.39;102204.59;5103994;27;19911;-66
2022/06/17 08:46:36;;;;;;;6.38;2.72;;;;;;;22.76;42.80;102205.44;5107303;27;20026;-66
2022/06/17 08:49:14;;;;;;;6.72;2.50;;;;;;;22.83;43.22;102217.19;5092941;28;20059;-65
2022/06/17 08:51:48;;;;;;;7.30;3.20;;;;;;;22.84;42.86;102218.91;5093564;28;20378;-67
2022/06/17 08:54:29;;;;;;;6.68;3.30;;;;;;;22.88;42.37;102225.66;5096760;28;20437;-67
2022/06/17 08:57:13;;;;;;;12.40;4.15;;;;;;;22.94;42.33;102221.63;5113736;27;20123;-66
2022/06/17 09:00:06;;;;;;;5.57;3.38;;;;;;;23.05;42.77;102218.66;5111930;27;20069;-65
2022/06/17 09:02:59;;;;;;;4.10;2.83;;;;;;;23.17;42.15;102216.22;5098572;27;20046;-65
2022/06/17 09:05:32;;;;;;;8.25;3.35;;;;;;;23.20;41.82;102227.78;5103115;27;20078;-64
2022/06/17 09:08:18;;;;;;;6.25;3.42;;;;;;;23.28;41.77;102227.09;5115922;27;20035;-65
2022/06/17 09:11:16;;;;;;;10.65;3.78;;;;;;;23.40;41.77;102237.13;5093214;27;20046;-65
2022/06/17 09:14:04;;;;;;;6.70;3.53;;;;;;;23.50;41.87;102229.31;5118263;27;20375;-64
2022/06/17 09:16:36;;;;;;;5.82;3.20;;;;;;;23.61;41.97;102212.13;5099047;27;20027;-66
2022/06/17 09:19:03;;;;;;;9.95;3.40;;;;;;;23.81;41.04;102205.28;5111743;27;20040;-67
2022/06/17 09:21:48;;;;;;;5.80;3.00;;;;;;;23.79;41.01;102208.44;5118876;27;20135;-66
2022/06/17 09:24:19;;;;;;;7.22;3.40;;;;;;;23.85;41.06;102210.03;5093321;28;20046;-65
2022/06/17 09:26:52;;;;;;;8.32;3.65;;;;;;;23.91;40.10;102217.31;5098495;27;20031;-65
2022/06/17 09:29:40;;;;;;;6.35;3.55;;;;;;;24.00;40.85;102226.78;5103632;27;20031;-65
2022/06/17 09:32:20;;;;;;;6.57;3.03;;;;;;;24.02;40.59;102217.97;5113681;27;20039;-66
2022/06/17 09:35:13;;;;;;;7.05;3.05;;;;;;;24.11;40.32;102218.94;5124438;27;20023;-66
2022/06/17 09:37:43;;;;;;;5.20;3.47;;;;;;;24.18;40.47;102227.88;5116147;27;20032;-65
2022/06/17 09:40:27;;;;;;;6.65;3.20;;;;;;;24.17;40.36;102226.19;5105873;27;20036;-65
2022/06/17 09:43:09;;;;;;;5.72;2.92;;;;;;;24.19;39.44;102226.72;5101138;27;20068;-66
2022/06/17 09:45:40;;;;;;;7.55;3.47;;;;;;;24.28;38.50;102209.81;5109490;27;20053;-66
2022/06/17 09:48:18;;;;;;;4.22;2.90;;;;;;;24.41;39.10;102206.19;5098492;28;20023;-66
2022/06/17 09:51:01;;;;;;;4.32;2.90;;;;;;;24.39;38.96;102228.34;5119680;27;20041;-67
2022/06/17 09:53:34;;;;;;;6.43;2.90;;;;;;;24.40;38.30;102220.69;5111235;27;20527;-66
2022/06/17 09:56:15;;;;;;;4.75;2.70;;;;;;;24.41;38.75;102230.91;5099912;27;20110;-66
2022/06/17 09:59:12;;;;;;;6.20;2.72;;;;;;;24.41;38.61;102217.53;5104710;27;20043;-66
2022/06/17 10:01:40;;;;;;;5.72;2.60;;;;;;;24.62;38.92;102209.44;5111981;27;20027;-66
2022/06/17 10:04:12;;;;;;;5.80;2.67;;;;;;;24.59;38.71;102204.38;5122545;27;20462;-67
2022/06/17 10:07:00;;;;;;;6.38;2.78;;;;;;;24.66;39.40;102201.13;5094620;28;20032;-67
2022/06/17 10:09:28;;;;;;;7.90;2.47;;;;;;;24.84;38.41;102199.34;5095449;27;20040;-65
2022/06/17 10:12:31;;;;;;;4.25;2.47;;;;;;;24.83;39.51;102203.31;5097596;28;20020;-65
2022/06/17 10:15:10;;;;;;;6.10;2.80;;;;;;;24.86;38.11;102197.00;5098429;28;20054;-64
2022/06/17 10:20:57;;;;;;;3.95;1.92;;;;;;;24.95;36.59;102192.25;5097860;28;20516;-66
2022/06/17 10:23:40;;;;;;;3.92;1.90;;;;;;;25.00;35.16;102177.97;5104939;28;20034;-66
2022/06/17 10:26:12;;;;;;;5.55;2.38;;;;;;;25.06;35.77;102179.50;5100972;28;20107;-65
2022/06/17 10:29:21;;;;;;;4.45;1.88;;;;;;;25.15;36.33;102173.94;5105449;28;20517;-66
2022/06/17 10:31:48;;;;;;;5.00;2.00;;;;;;;25.22;34.98;102175.16;5098255;28;20046;-65
2022/06/17 10:34:16;;;;;;;6.32;1.98;;;;;;;25.31;34.39;102168.72;5091339;28;20035;-66
2022/06/17 10:36:44;;;;;;;4.22;2.10;;;;;;;25.28;35.33;102170.22;5097442;28;20028;-64
2022/06/17 10:39:13;;;;;;;4.10;1.77;;;;;;;25.40;34.85;102175.34;5098890;28;20698;-65
2022/06/17 10:41:39;;;;;;;3.67;1.73;;;;;;;25.52;35.10;102180.44;5105936;28;20016;-65
2022/06/17 10:44:09;;;;;;;4.18;1.88;;;;;;;25.51;34.05;102175.94;5101978;28;20015;-64
2022/06/17 10:46:39;;;;;;;5.22;1.85;;;;;;;25.50;34.45;102177.91;5104536;27;20031;-65
2022/06/17 10:49:13;;;;;;;2.22;2.03;;;;;;;25.50;34.68;102169.38;5089044;28;20036;-66
2022/06/17 10:51:40;;;;;;;3.65;1.88;;;;;;;25.54;35.35;102173.25;5099841;27;20028;-64
2022/06/17 10:54:17;;;;;;;4.55;2.08;;;;;;;25.70;35.20;102163.19;5101124;28;20038;-63
2022/06/17 10:57:28;;;;;;;5.22;2.20;;;;;;;25.66;36.45;102161.28;5112929;27;20030;-65
2022/06/17 10:59:54;;;;;;;3.30;2.03;;;;;;;25.74;35.65;102153.97;5035936;28;20064;-65
2022/06/17 11:02:25;;;;;;;3.15;1.90;;;;;;;25.76;35.40;102154.50;5093580;28;20445;-63
2022/06/17 11:04:54;;;;;;;2.70;2.00;;;;;;;25.89;34.71;102156.44;5108361;28;20020;-63
2022/06/17 11:07:34;;;;;;;6.05;2.10;;;;;;;25.88;35.03;102147.09;5102852;28;20293;-63
2022/06/17 11:10:08;;;;;;;3.65;1.80;;;;;;;26.07;34.74;102132.63;5105179;28;20039;-63
2022/06/17 11:12:37;;;;;;;2.85;1.90;;;;;;;26.04;35.45;102138.13;5102951;28;20114;-64
2022/06/17 11:15:21;;;;;;;4.93;1.80;;;;;;;26.06;34.98;102138.66;5106029;28;20024;-63
2022/06/17 11:17:51;;;;;;;2.42;1.80;;;;;;;26.00;34.31;102134.25;5109191;27;20412;-64
2022/06/17 11:20:24;;;;;;;5.25;1.90;;;;;;;26.11;34.91;102130.81;5115924;27;20471;-63
2022/06/17 11:22:53;;;;;;;3.60;1.60;;;;;;;26.18;34.30;102124.66;5106509;27;20157;-63
2022/06/17 11:25:33;;;;;;;3.03;1.73;;;;;;;26.14;34.09;102129.31;5109552;27;20102;-63
2022/06/17 11:28:10;;;;;;;2.53;2.00;;;;;;;26.11;34.80;102121.44;5111854;27;20139;-64
2022/06/17 11:30:37;;;;;;;3.45;1.63;;;;;;;26.25;33.68;102127.00;5112792;27;20031;-63
2022/06/17 11:33:22;;;;;;;3.72;1.77;;;;;;;26.30;34.48;102110.63;5119134;27;20034;-64
2022/06/17 11:35:58;;;;;;;3.33;1.60;;;;;;;26.37;34.75;102116.69;5108478;27;20743;-63
2022/06/17 11:38:25;;;;;;;3.75;1.90;;;;;;;26.34;35.42;102111.63;5123462;27;20027;-64
2022/06/17 11:41:00;;;;;;;3.67;1.70;;;;;;;26.38;34.16;102117.50;5110642;27;20020;-61
2022/06/17 11:43:38;;;;;;;2.95;1.70;;;;;;;26.44;33.97;102104.78;5122429;27;20106;-64
2022/06/17 11:46:10;;;;;;;3.47;1.70;;;;;;;26.41;33.53;102108.31;5107726;27;20386;-65
2022/06/17 11:48:40;;;;;;;4.18;1.73;;;;;;;26.56;32.76;102107.03;5110469;27;20020;-65
2022/06/17 11:51:19;;;;;;;3.78;1.40;;;;;;;26.63;32.83;102102.50;5105351;27;20096;-65
2022/06/17 11:54:01;;;;;;;2.63;1.92;;;;;;;26.68;33.48;102099.53;5115872;27;20492;-64